Time;durP1;ratioP1;P1;durP2;ratioP2;P2;SDS_P1;SDS_P2;PMS_P1;PMS_P2;Temp;Humidity;BMP_temperature;BMP_pressure;BME280_temperature;BME280_humidity;BME280_pressure;Samples;Min_cycle;Max_cycle;Signal;HPM_P1;HPM_P2
2021/04/09 00:00:01;;;;;;;;;;;;;;;0.95;67.11;100123.23;1708695;81;21572;-66
2021/04/09 00:02:31;;;;;;;12.07;8.43;;;;;;;0.92;67.42;100126.69;1710136;81;20265;-66
2021/04/09 00:04:59;;;;;;;12.30;8.58;;;;;;;0.85;67.39;100136.98;1670325;84;21690;-66
2021/04/09 00:07:27;;;;;;;13.98;8.93;;;;;;;0.86;67.42;100130.52;1673918;83;22125;-66
2021/04/09 00:09:55;;;;;;;11.55;8.68;;;;;;;0.85;67.57;100135.28;1655787;83;21621;-67
2021/04/09 00:12:24;;;;;;;13.80;8.58;;;;;;;0.86;67.62;100136.14;1647155;83;21505;-66
2021/04/09 00:14:53;;;;;;;11.28;8.83;;;;;;;0.87;67.71;100130.12;1664839;83;21667;-65
2021/04/09 00:17:21;;;;;;;11.48;8.50;;;;;;;0.91;67.95;100137.03;1694280;82;21671;-66
2021/04/09 00:19:51;;;;;;;10.43;7.92;;;;;;;0.86;67.93;100146.49;1722193;80;21568;-66
2021/04/09 00:22:20;;;;;;;17.02;8.95;;;;;;;0.86;67.97;100142.17;1711612;80;21571;-68
2021/04/09 00:24:48;;;;;;;11.93;8.28;;;;;;;0.85;68.05;100142.16;1709620;82;21615;-66
2021/04/09 00:27:17;;;;;;;11.88;8.10;;;;;;;0.88;68.16;100152.54;1707614;80;21604;-66
2021/04/09 00:29:45;;;;;;;14.45;9.38;;;;;;;0.88;68.07;100153.84;1715762;80;21736;-67
2021/04/09 00:32:13;;;;;;;12.73;8.60;;;;;;;0.91;68.09;100157.30;1723157;80;21798;-66
2021/04/09 00:34:41;;;;;;;12.88;8.78;;;;;;;0.82;68.16;100155.11;1715451;80;21171;-67
2021/04/09 00:37:10;;;;;;;15.28;9.43;;;;;;;0.77;68.29;100154.66;1712145;82;21599;-66
2021/04/09 00:39:38;;;;;;;11.50;8.48;;;;;;;0.82;68.37;100161.58;1711302;80;21194;-66
2021/04/09 00:42:06;;;;;;;13.18;8.73;;;;;;;0.85;68.44;100161.58;1718874;80;21595;-67
2021/04/09 00:44:34;;;;;;;11.53;8.25;;;;;;;0.83;68.49;100162.89;1715672;80;21902;-66
2021/04/09 00:47:03;;;;;;;11.35;8.68;;;;;;;0.86;68.49;100168.50;1712632;80;21699;-66
2021/04/09 00:49:31;;;;;;;11.08;7.90;;;;;;;0.87;68.47;100168.95;1714606;80;21647;-66
2021/04/09 00:51:59;;;;;;;13.28;9.00;;;;;;;0.86;68.46;100170.66;1708751;80;21641;-66
2021/04/09 00:54:26;;;;;;;;;;;;;;;0.81;68.51;100172.37;1709292;81;21596;-66
2021/04/09 00:56:54;;;;;;;;;;;;;;;0.79;68.92;100175.35;1703544;81;21958;-66
2021/04/09 00:59:22;;;;;;;12.50;8.63;;;;;;;0.76;68.99;100185.27;1705738;81;20297;-66
2021/04/09 01:01:49;;;;;;;;;;;;;;;0.71;68.95;100176.61;1694838;81;21250;-64
2021/04/09 01:04:17;;;;;;;12.30;8.95;;;;;;;0.69;69.13;100183.50;1702915;82;20496;-65
2021/04/09 01:06:45;;;;;;;12.13;8.50;;;;;;;0.66;69.42;100187.79;1697326;82;21076;-67
2021/04/09 01:09:13;;;;;;;12.90;9.00;;;;;;;0.66;69.17;100187.79;1693528;82;22069;-66
2021/04/09 01:11:41;;;;;;;13.95;8.00;;;;;;;0.67;69.40;100189.53;1715101;80;21135;-65
2021/04/09 01:14:09;;;;;;;11.03;8.80;;;;;;;0.61;69.54;100194.25;1710662;80;21759;-65
2021/04/09 01:17:01;;;;;;;11.85;9.03;;;;;;;0.58;69.60;100192.52;1711893;82;21589;-65
2021/04/09 01:20:06;;;;;;;11.73;8.73;;;;;;;0.57;69.95;100196.37;1701245;81;21486;-66
2021/04/09 01:22:55;;;;;;;11.90;8.75;;;;;;;0.52;69.83;100189.86;1690212;82;21643;-66
2021/04/09 01:25:47;;;;;;;9.60;7.65;;;;;;;0.52;69.83;100194.19;1691018;81;21639;-66
2021/04/09 01:28:27;;;;;;;10.60;8.13;;;;;;;0.51;70.35;100197.61;1695988;81;21631;-66
2021/04/09 01:31:23;;;;;;;10.68;8.40;;;;;;;0.53;70.01;100190.75;1709477;81;21603;-66
2021/04/09 01:33:54;;;;;;;10.82;8.90;;;;;;;0.54;70.09;100194.62;1710179;81;21708;-66
2021/04/09 01:36:32;;;;;;;12.18;9.03;;;;;;;0.38;70.33;100177.28;1687583;82;22145;-68
2021/04/09 01:39:08;;;;;;;12.73;8.95;;;;;;;0.54;70.42;100201.52;1706551;81;21595;-68
2021/04/09 01:41:38;;;;;;;12.65;9.08;;;;;;;0.54;70.60;100197.20;1703754;81;21157;-65
2021/04/09 01:44:08;;;;;;;13.35;9.53;;;;;;;0.50;70.51;100202.36;1691431;82;21177;-66
2021/04/09 01:46:39;;;;;;;12.43;8.90;;;;;;;0.50;70.61;100209.69;1693088;80;21690;-68
2021/04/09 01:49:08;;;;;;;14.75;8.35;;;;;;;0.51;70.60;100214.03;1676836;82;21974;-65
2021/04/09 01:51:36;;;;;;;12.10;8.63;;;;;;;0.52;70.48;100215.73;1667430;81;21537;-72
2021/04/09 01:54:03;;;;;;;;;;;;;;;0.44;70.62;100212.68;1701144;81;21701;-66
2021/04/09 01:56:31;;;;;;;9.33;7.78;;;;;;;0.46;71.16;100218.30;1699747;81;20626;-67
2021/04/09 01:58:59;;;;;;;11.55;8.40;;;;;;;0.42;70.85;100220.42;1704583;81;27180;-67
2021/04/09 02:01:27;;;;;;;14.60;9.63;;;;;;;0.44;70.88;100226.91;1702092;81;22094;-63
2021/04/09 02:03:55;;;;;;;11.10;8.50;;;;;;;0.42;70.93;100233.36;1702037;81;21702;-63
2021/04/09 02:06:26;;;;;;;10.68;8.45;;;;;;;0.43;70.93;100233.78;1712820;81;21567;-64
2021/04/09 02:08:53;;;;;;;10.98;8.53;;;;;;;0.37;71.08;100235.89;1691553;82;21630;-65
2021/04/09 02:11:23;;;;;;;10.08;8.63;;;;;;;0.35;71.20;100234.16;1706992;80;21666;-65
2021/04/09 02:13:51;;;;;;;11.28;8.30;;;;;;;0.27;71.51;100231.95;1695837;82;22119;-66
2021/04/09 02:16:18;;;;;;;10.00;8.45;;;;;;;0.25;71.59;100239.69;1658483;83;21659;-65
2021/04/09 02:18:46;;;;;;;10.95;8.90;;;;;;;0.28;71.64;100240.98;1711082;80;21588;-65
2021/04/09 02:21:14;;;;;;;;;;;;;;;0.26;71.59;100237.95;1720234;80;21584;-65
2021/04/09 02:23:42;;;;;;;12.70;9.28;;;;;;;0.24;71.62;100249.58;1717421;80;20487;-65
2021/04/09 02:26:10;;;;;;;11.10;9.13;;;;;;;0.17;71.88;100246.09;1715909;80;21564;-65
2021/04/09 02:28:39;;;;;;;11.33;9.53;;;;;;;0.14;71.87;100243.89;1725317;80;21221;-65
2021/04/09 02:31:10;;;;;;;;;;;;;;;0.16;71.96;100245.63;1720044;80;21579;-66
2021/04/09 02:33:37;;;;;;;13.45;9.35;;;;;;;0.18;72.12;100248.23;1715811;80;20879;-65
2021/04/09 02:36:13;;;;;;;11.57;9.38;;;;;;;0.15;72.09;100255.95;1722304;82;21981;-64
2021/04/09 02:38:46;;;;;;;13.78;9.53;;;;;;;0.17;71.92;100252.95;1715908;80;21894;-64
2021/04/09 02:41:14;;;;;;;13.50;10.63;;;;;;;0.18;71.92;100263.32;1715068;80;21658;-63
2021/04/09 02:43:42;;;;;;;13.05;10.38;;;;;;;0.18;71.97;100265.91;1701094;82;21596;-64
2021/04/09 02:46:12;;;;;;;;;;;;;;;0.17;72.08;100266.78;1706828;82;21135;-65
2021/04/09 02:48:51;;;;;;;14.80;10.38;;;;;;;0.18;72.33;100266.34;1712744;80;20511;-64
2021/04/09 02:51:20;;;;;;;16.42;11.10;;;;;;;0.13;72.17;100267.61;1716803;82;22212;-66
2021/04/09 02:53:50;;;;;;;14.75;11.57;;;;;;;0.13;72.21;100271.89;1715142;80;21240;-67
2021/04/09 02:56:17;;;;;;;;;;;;;;;0.16;72.24;100270.20;1715828;80;21647;-65
2021/04/09 02:58:46;;;;;;;12.47;10.00;;;;;;;0.16;72.44;100275.38;1725718;80;20544;-66
2021/04/09 03:01:13;;;;;;;14.53;10.85;;;;;;;0.15;72.21;100280.52;1713949;82;21581;-66
2021/04/09 03:03:41;;;;;;;;;;;;;;;0.15;72.32;100285.30;1725689;80;21836;-66
2021/04/09 03:06:10;;;;;;;15.30;10.60;;;;;;;0.09;72.54;100292.97;1720631;80;20862;-64
2021/04/09 03:08:38;;;;;;;;;;;;;;;0.07;72.75;100288.64;1671190;83;21703;-65
2021/04/09 03:11:05;;;;;;;;;;;;;;;0.01;72.97;100293.77;1669718;83;20512;-65
2021/04/09 03:13:33;;;;;;;11.90;9.10;;;;;;;0.01;73.00;100297.20;1692554;82;20247;-66
2021/04/09 03:16:02;;;;;;;11.38;9.50;;;;;;;-0.02;72.90;100301.04;1665882;84;22117;-65
2021/04/09 03:18:37;;;;;;;12.50;10.10;;;;;;;0.02;72.92;100302.83;1718894;81;21592;-65
2021/04/09 03:21:05;;;;;;;14.50;10.38;;;;;;;0.06;72.90;100308.88;1700753;81;21679;-65
2021/04/09 03:23:34;;;;;;;12.70;9.70;;;;;;;0.08;72.89;100309.79;1701265;81;21690;-66
2021/04/09 03:26:02;;;;;;;12.00;10.15;;;;;;;0.09;72.96;100320.55;1647014;84;22077;-65
2021/04/09 03:28:30;;;;;;;13.40;10.35;;;;;;;0.07;73.30;100326.14;1659678;84;21655;-66
2021/04/09 03:30:58;;;;;;;13.15;11.40;;;;;;;0.02;73.25;100326.51;1672434;83;21636;-67
2021/04/09 03:33:26;;;;;;;13.22;10.53;;;;;;;-0.01;73.43;100335.11;1662886;83;21523;-65
2021/04/09 03:35:54;;;;;;;15.32;11.57;;;;;;;-0.01;73.55;100334.67;1712263;81;21143;-64
2021/04/09 03:38:22;;;;;;;;;;;;;;;0.07;73.61;100339.07;1714684;81;21640;-63
2021/04/09 03:40:51;;;;;;;17.05;10.48;;;;;;;0.06;73.79;100342.48;1700170;81;20594;-63
2021/04/09 03:43:19;;;;;;;13.72;9.73;;;;;;;0.02;73.75;100349.78;1699282;82;21656;-63
2021/04/09 03:45:47;;;;;;;13.90;11.90;;;;;;;0.07;73.77;100358.46;1708092;81;21565;-63
2021/04/09 03:48:15;;;;;;;14.63;11.03;;;;;;;0.12;73.80;100351.63;1700919;82;21103;-63
2021/04/09 03:50:43;;;;;;;12.88;11.40;;;;;;;0.15;73.88;100360.70;1702999;82;21234;-63
2021/04/09 03:53:11;;;;;;;15.48;11.55;;;;;;;0.23;73.92;100364.66;1702483;81;21925;-62
2021/04/09 03:55:38;;;;;;;14.87;11.28;;;;;;;0.29;73.90;100364.75;1698172;81;21604;-63
2021/04/09 03:58:07;;;;;;;12.20;10.90;;;;;;;0.25;74.15;100369.02;1703098;81;21940;-63
2021/04/09 04:00:35;;;;;;;15.18;11.38;;;;;;;0.31;74.15;100368.21;1709041;81;21707;-63
2021/04/09 04:03:04;;;;;;;15.40;11.88;;;;;;;0.37;74.08;100362.66;1640069;84;21568;-63
2021/04/09 04:05:32;;;;;;;16.57;11.63;;;;;;;0.45;74.01;100370.93;1673183;83;21639;-64
2021/04/09 04:07:59;;;;;;;;;;;;;;;0.50;73.89;100370.56;1661348;84;21587;-64
2021/04/09 04:10:28;;;;;;;14.63;11.65;;;;;;;0.51;74.04;100380.03;1645484;84;20578;-64
2021/04/09 04:12:56;;;;;;;16.52;12.80;;;;;;;0.52;73.98;100382.64;1668772;84;21509;-64
2021/04/09 04:15:24;;;;;;;16.35;12.25;;;;;;;0.58;73.81;100380.55;1668210;84;21628;-63
2021/04/09 04:17:52;;;;;;;19.60;13.55;;;;;;;0.65;73.90;100386.23;1669945;83;21734;-65
2021/04/09 04:20:20;;;;;;;15.68;13.38;;;;;;;0.71;73.75;100395.77;1672910;83;21655;-65
2021/04/09 04:22:47;;;;;;;17.17;13.85;;;;;;;0.71;73.79;100399.22;1669235;83;21663;-66
2021/04/09 04:25:15;;;;;;;18.48;13.50;;;;;;;0.72;73.77;100398.38;1663865;84;21706;-65
2021/04/09 04:27:44;;;;;;;17.10;13.35;;;;;;;0.77;73.75;100400.59;1666115;83;21596;-67
2021/04/09 04:30:14;;;;;;;20.80;13.18;;;;;;;0.85;73.62;100407.53;1715675;80;22632;-66
2021/04/09 04:32:42;;;;;;;14.78;12.55;;;;;;;0.92;73.59;100409.33;1703987;82;21174;-65
2021/04/09 04:35:11;;;;;;;16.73;12.98;;;;;;;0.91;73.67;100410.20;1710537;80;21151;-68
2021/04/09 04:37:39;;;;;;;16.00;12.68;;;;;;;0.94;73.64;100411.10;1718301;80;22056;-67
2021/04/09 04:40:08;;;;;;;17.17;13.48;;;;;;;0.97;73.58;100419.31;1705299;80;21644;-66
2021/04/09 04:42:36;;;;;;;17.30;12.13;;;;;;;1.06;73.79;100418.53;1712416;80;22039;-65
2021/04/09 04:45:06;;;;;;;17.67;12.85;;;;;;;1.26;73.70;100422.16;1710879;80;21134;-65
2021/04/09 04:47:34;;;;;;;15.68;12.65;;;;;;;1.36;73.54;100429.12;1708581;80;21640;-66
2021/04/09 04:50:03;;;;;;;18.75;14.20;;;;;;;1.39;73.36;100429.56;1713784;80;21805;-66
2021/04/09 04:52:31;;;;;;;16.32;12.98;;;;;;;1.41;73.24;100431.73;1709089;80;21173;-67
2021/04/09 04:54:59;;;;;;;15.23;12.50;;;;;;;1.36;73.02;100433.01;1707570;80;21937;-66
2021/04/09 04:57:26;;;;;;;;;;;;;;;1.35;72.99;100435.58;1712644;80;21620;-63
2021/04/09 04:59:54;;;;;;;15.48;12.65;;;;;;;1.36;72.92;100439.48;1714971;80;20498;-66
2021/04/09 05:02:22;;;;;;;;;;;;;;;1.32;72.78;100439.47;1715008;80;21652;-66
2021/04/09 05:04:50;;;;;;;16.93;13.22;;;;;;;1.33;72.83;100446.37;1710085;82;20554;-69
2021/04/09 05:07:19;;;;;;;16.93;13.30;;;;;;;1.28;72.72;100447.64;1712823;82;22010;-66
2021/04/09 05:09:47;;;;;;;17.98;13.00;;;;;;;1.27;72.88;100447.19;1708619;80;21569;-64
2021/04/09 05:12:15;;;;;;;20.48;13.85;;;;;;;1.42;73.05;100452.06;1701141;82;21182;-64
2021/04/09 05:14:43;;;;;;;;;;;;;;;1.61;73.04;100453.05;1715666;80;21651;-66
2021/04/09 05:17:10;;;;;;;16.45;12.95;;;;;;;1.62;72.97;100450.48;1708471;82;20566;-65
2021/04/09 05:19:38;;;;;;;17.45;13.40;;;;;;;1.65;73.02;100453.51;1709792;80;22137;-63
2021/04/09 05:22:06;;;;;;;19.50;12.65;;;;;;;1.75;73.09;100461.36;1717280;80;21654;-65
2021/04/09 05:24:33;;;;;;;15.58;12.73;;;;;;;1.86;72.82;100457.95;1715891;80;21127;-65
2021/04/09 05:27:02;;;;;;;16.70;12.43;;;;;;;1.94;72.69;100467.52;1718316;80;21610;-70
2021/04/09 05:29:30;;;;;;;16.87;12.90;;;;;;;2.07;72.37;100468.86;1718382;81;21154;-62
2021/04/09 05:31:58;;;;;;;15.83;12.43;;;;;;;2.15;72.13;100468.49;1726416;80;22102;-58
2021/04/09 05:34:26;;;;;;;15.40;11.50;;;;;;;2.30;72.26;100475.05;1710935;82;21734;-58
2021/04/09 05:36:53;;;;;;;;;;;;;;;2.54;72.07;100477.28;1720784;80;21541;-59
2021/04/09 05:39:21;;;;;;;14.25;11.55;;;;;;;2.63;71.54;100479.91;1716276;81;27148;-58
2021/04/09 05:41:49;;;;;;;14.43;12.88;;;;;;;2.67;70.95;100480.34;1722562;80;21643;-59
2021/04/09 05:44:16;;;;;;;;;;;;;;;2.71;70.77;100485.12;1722445;80;22093;-59
2021/04/09 05:46:44;;;;;;;13.62;11.38;;;;;;;2.79;70.74;100491.63;1713911;82;20591;-59
2021/04/09 05:49:12;;;;;;;16.45;13.38;;;;;;;2.82;70.45;100490.34;1718669;80;21684;-60
2021/04/09 05:51:40;;;;;;;15.28;12.33;;;;;;;2.84;70.02;100487.32;1718810;80;21646;-59
2021/04/09 05:54:08;;;;;;;;;;;;;;;2.86;69.80;100492.98;1726867;82;21198;-60
2021/04/09 05:56:35;;;;;;;14.68;12.58;;;;;;;2.92;69.87;100488.22;1715341;80;22076;-61
2021/04/09 05:59:03;;;;;;;15.53;11.78;;;;;;;2.92;69.45;100490.83;1711652;82;21703;-59
2021/04/09 06:01:32;;;;;;;13.75;12.00;;;;;;;2.96;69.57;100492.97;1712527;82;21654;-64
2021/04/09 06:03:59;;;;;;;;;;;;;;;2.99;69.09;100493.84;1720302;80;21714;-62
2021/04/09 06:06:27;;;;;;;16.73;13.05;;;;;;;3.03;68.73;100497.31;1717372;82;20589;-64
2021/04/09 06:08:55;;;;;;;;;;;;;;;3.20;69.18;100497.34;1722178;80;21846;-63
2021/04/09 06:11:22;;;;;;;15.70;12.18;;;;;;;3.35;69.01;100494.73;1716498;80;20499;-59
2021/04/09 06:13:53;;;;;;;15.32;12.60;;;;;;;3.45;68.73;100496.94;1704226;82;21710;-60
2021/04/09 06:16:21;;;;;;;18.98;13.55;;;;;;;3.57;67.99;100501.26;1713717;82;21683;-60
2021/04/09 06:18:50;;;;;;;14.87;13.05;;;;;;;3.64;68.09;100496.48;1716066;82;21647;-59
2021/04/09 06:21:19;;;;;;;13.80;12.33;;;;;;;3.76;67.73;100503.41;1722171;81;22091;-57
2021/04/09 06:23:46;;;;;;;;;;;;;;;3.87;67.58;100499.05;1723873;82;21508;-58
2021/04/09 06:26:14;;;;;;;14.15;12.35;;;;;;;3.93;67.06;100499.48;1728070;80;26436;-58
2021/04/09 06:28:41;;;;;;;;;;;;;;;3.92;66.69;100499.92;1724254;82;21615;-58
2021/04/09 06:31:10;;;;;;;15.25;12.53;;;;;;;3.97;66.50;100500.75;1718779;82;20568;-57
2021/04/09 06:33:39;;;;;;;15.28;11.97;;;;;;;4.00;66.53;100502.06;1711487;82;21761;-61
2021/04/09 06:36:07;;;;;;;;;;;;;;;4.13;66.40;100508.55;1720287;80;21576;-59
2021/04/09 06:38:36;;;;;;;16.20;12.82;;;;;;;4.21;65.92;100508.08;1711059;82;20248;-59
2021/04/09 06:41:04;;;;;;;17.17;14.07;;;;;;;4.26;66.15;100508.95;1725249;80;21629;-58
2021/04/09 06:43:32;;;;;;;15.72;13.43;;;;;;;4.37;65.98;100512.38;1711030;80;21654;-59
2021/04/09 06:46:00;;;;;;;16.97;14.23;;;;;;;4.49;65.47;100516.66;1718694;80;22070;-62
2021/04/09 06:48:29;;;;;;;18.32;13.75;;;;;;;4.53;65.08;100516.22;1710064;82;21477;-59
2021/04/09 06:50:57;;;;;;;16.87;13.80;;;;;;;4.58;64.93;100519.68;1712010;82;21660;-58
2021/04/09 06:53:25;;;;;;;17.17;13.72;;;;;;;4.65;64.63;100526.56;1714282;80;21742;-58
2021/04/09 06:55:53;;;;;;;;;;;;;;;4.73;64.41;100523.52;1715970;82;21604;-58
2021/04/09 06:58:21;;;;;;;16.85;12.88;;;;;;;4.83;63.41;100523.02;1725858;80;22043;-59
2021/04/09 07:00:53;;;;;;;15.80;13.38;;;;;;;4.88;63.92;100523.88;1726437;80;21949;-59
2021/04/09 07:03:21;;;;;;;19.10;13.72;;;;;;;4.95;63.76;100533.36;1687434;82;21624;-59
2021/04/09 07:05:49;;;;;;;17.75;13.20;;;;;;;5.04;63.52;100532.02;1714231;80;21176;-59
2021/04/09 07:08:17;;;;;;;18.27;13.83;;;;;;;5.13;63.33;100532.85;1715352;80;21631;-58
2021/04/09 07:10:47;;;;;;;17.52;13.35;;;;;;;5.19;62.91;100535.41;1714876;82;21584;-58
2021/04/09 07:13:15;;;;;;;17.02;13.72;;;;;;;5.16;62.43;100535.42;1726093;80;21651;-58
2021/04/09 07:15:44;;;;;;;;;;;;;;;5.23;61.85;100533.20;1722657;80;21225;-59
2021/04/09 07:18:15;;;;;;;13.78;12.20;;;;;;;5.29;61.99;100529.69;1716601;80;20297;-66
2021/04/09 07:20:45;;;;;;;16.82;13.45;;;;;;;5.39;61.84;100532.67;1715409;81;21662;-57
2021/04/09 07:23:13;;;;;;;15.32;13.20;;;;;;;5.44;61.49;100533.48;1704625;82;22008;-58
2021/04/09 07:25:45;;;;;;;16.35;12.80;;;;;;;5.49;60.79;100530.41;1698972;81;21667;-60
2021/04/09 07:28:18;;;;;;;14.78;11.57;;;;;;;5.61;59.98;100535.96;1702564;82;21628;-59
2021/04/09 07:30:51;;;;;;;15.78;13.32;;;;;;;5.73;58.06;100537.63;1703174;81;21211;-58
2021/04/09 07:33:24;;;;;;;15.58;12.78;;;;;;;5.79;59.13;100536.26;1703876;82;21608;-60
2021/04/09 07:36:00;;;;;;;16.55;13.28;;;;;;;5.79;59.36;100534.50;1705576;81;21947;-59
2021/04/09 07:38:33;;;;;;;13.10;11.70;;;;;;;5.88;59.25;100540.09;1702290;82;22209;-60
2021/04/09 07:41:07;;;;;;;14.50;12.07;;;;;;;5.98;57.21;100540.89;1713910;81;21672;-59
2021/04/09 07:43:39;;;;;;;10.70;9.53;;;;;;;6.12;58.25;100542.05;1707063;81;21663;-58
2021/04/09 07:46:09;;;;;;;12.58;9.53;;;;;;;6.22;56.34;100537.18;1705076;81;21167;-61
2021/04/09 07:48:38;;;;;;;13.03;9.78;;;;;;;6.31;54.87;100545.34;1665962;81;21661;-59
2021/04/09 07:51:08;;;;;;;12.63;11.03;;;;;;;6.38;56.00;100545.70;1705417;81;21680;-59
2021/04/09 07:53:41;;;;;;;12.75;11.08;;;;;;;6.51;55.93;100545.13;1692035;81;21649;-59
2021/04/09 07:56:12;;;;;;;11.60;10.05;;;;;;;6.63;55.76;100543.69;1704792;82;21656;-62
2021/04/09 07:58:41;;;;;;;12.15;10.85;;;;;;;6.77;54.80;100548.73;1707045;81;21712;-58
2021/04/09 08:01:26;;;;;;;16.32;10.53;;;;;;;6.92;55.05;100543.30;1700519;81;22098;-59
2021/04/09 08:03:58;;;;;;;11.33;10.13;;;;;;;6.94;54.15;100541.97;1671623;83;21174;-59
2021/04/09 08:06:24;;;;;;;14.85;10.82;;;;;;;7.01;53.71;100544.93;1648581;84;21638;-61
2021/04/09 08:08:57;;;;;;;12.13;10.82;;;;;;;7.02;53.77;100540.10;1668007;83;21991;-59
2021/04/09 08:11:32;;;;;;;13.03;10.78;;;;;;;7.10;52.56;100536.95;1663869;83;21660;-59
2021/04/09 08:14:13;;;;;;;11.53;10.03;;;;;;;7.25;53.00;100542.83;1666502;83;22044;-61
2021/04/09 08:16:49;;;;;;;9.90;8.90;;;;;;;7.44;52.23;100529.91;1666023;83;21663;-62
2021/04/09 08:19:21;;;;;;;12.80;9.55;;;;;;;7.55;51.99;100531.03;1666653;83;21679;-60
2021/04/09 08:21:56;;;;;;;12.07;9.20;;;;;;;7.68;50.57;100533.00;1673299;83;21641;-60
2021/04/09 08:24:32;;;;;;;11.35;8.65;;;;;;;7.63;49.92;100532.20;1676700;83;21657;-60
2021/04/09 08:27:00;;;;;;;13.32;9.80;;;;;;;7.56;50.17;100536.70;1688798;82;21738;-66
2021/04/09 08:29:30;;;;;;;11.12;9.18;;;;;;;7.51;49.88;100532.83;1670923;83;22040;-61
2021/04/09 08:34:43;;;;;;;9.50;8.25;;;;;;;7.77;48.81;100528.47;1777850;79;23107;-61
2021/04/09 08:37:11;;;;;;;8.48;5.80;;;;;;;7.87;47.04;100528.31;1748128;79;21646;-61
2021/04/09 08:39:40;;;;;;;5.05;4.60;;;;;;;7.98;45.84;100524.61;1747750;80;22356;-63
2021/04/09 08:42:08;;;;;;;4.25;3.60;;;;;;;8.18;44.50;100522.09;1744250;80;21627;-62
2021/04/09 08:44:36;;;;;;;4.28;3.87;;;;;;;8.35;43.97;100521.30;1745773;79;21508;-64
2021/04/09 08:47:05;;;;;;;4.33;3.92;;;;;;;8.45;43.23;100528.56;1748233;79;21096;-60
2021/04/09 08:49:32;;;;;;;5.12;4.30;;;;;;;8.52;42.70;100528.86;1746762;80;21161;-67
2021/04/09 08:52:01;;;;;;;5.22;4.72;;;;;;;8.53;42.69;100522.74;1736554;79;22039;-61
2021/04/09 08:54:31;;;;;;;5.60;5.08;;;;;;;8.64;42.93;100532.98;1746681;79;21682;-60
2021/04/09 08:57:02;;;;;;;7.00;5.00;;;;;;;8.76;42.98;100529.27;1753505;79;21642;-61
2021/04/09 08:59:47;;;;;;;4.83;4.42;;;;;;;8.83;42.26;100536.08;1751592;79;21694;-62
2021/04/09 09:02:22;;;;;;;4.55;3.95;;;;;;;8.89;42.15;100535.97;1692951;82;21158;-68
2021/04/09 09:05:06;;;;;;;6.97;4.17;;;;;;;8.91;40.71;100533.29;1688645;82;21663;-60
2021/04/09 09:07:54;;;;;;;4.72;4.15;;;;;;;8.85;40.90;100540.84;1685854;82;22077;-64
2021/04/09 09:10:31;;;;;;;;;;;;;;;8.98;41.01;100540.59;1693414;82;21658;-63
2021/04/09 09:13:09;;;;;;;;;;;;;;;9.13;40.17;100531.91;1687737;83;20613;-62
2021/04/09 09:15:48;;;;;;;3.98;3.45;;;;;;;9.23;39.44;100527.34;1688878;82;20578;-60
2021/04/09 09:18:28;;;;;;;6.03;3.98;;;;;;;9.26;40.96;100528.56;1688922;83;22097;-62
2021/04/09 09:21:25;;;;;;;5.30;4.25;;;;;;;9.33;40.31;100538.03;1695727;82;21570;-61
2021/04/09 09:24:04;;;;;;;5.00;3.83;;;;;;;9.23;38.88;100535.22;1689518;82;21933;-63
2021/04/09 09:26:47;;;;;;;4.53;4.12;;;;;;;9.20;39.43;100535.73;1682653;83;21666;-64
2021/04/09 09:29:27;;;;;;;5.55;4.95;;;;;;;9.18;39.87;100536.22;1687485;83;21678;-60
2021/04/09 09:32:04;;;;;;;5.95;5.35;;;;;;;9.12;39.91;100539.39;1686603;82;22408;-59
2021/04/09 09:34:39;;;;;;;;;;;;;;;8.99;40.01;100536.63;1662518;83;21235;-61
2021/04/09 09:37:29;;;;;;;5.95;5.03;;;;;;;8.91;39.40;100537.22;1652889;85;20479;-60
2021/04/09 09:40:05;;;;;;;7.22;5.67;;;;;;;8.84;40.68;100535.20;1651226;85;21155;-66
2021/04/09 09:42:42;;;;;;;6.90;5.92;;;;;;;8.88;41.54;100536.00;1655095;85;21754;-57
2021/04/09 09:45:31;;;;;;;7.85;5.22;;;;;;;8.95;41.52;100541.08;1655093;85;22064;-63
2021/04/09 09:48:14;;;;;;;9.30;6.47;;;;;;;9.04;40.73;100544.38;1651197;85;21641;-62
2021/04/09 09:50:44;;;;;;;7.58;6.42;;;;;;;9.07;41.41;100543.87;1653446;84;21602;-63
2021/04/09 09:53:12;;;;;;;6.25;5.65;;;;;;;9.13;41.23;100532.37;1678313;82;21644;-62
2021/04/09 09:55:45;;;;;;;6.50;5.35;;;;;;;9.20;41.33;100534.42;1677950;82;21629;-62
2021/04/09 09:58:32;;;;;;;6.30;4.78;;;;;;;9.36;40.38;100539.70;1737230;81;22120;-62
2021/04/09 10:01:04;;;;;;;7.17;4.47;;;;;;;9.58;40.29;100536.13;1738669;81;21706;-60
2021/04/09 10:03:36;;;;;;;7.42;4.40;;;;;;;9.78;36.37;100532.16;1737565;81;21634;-61
2021/04/09 10:06:11;;;;;;;4.92;4.47;;;;;;;9.87;38.63;100533.21;1738056;81;21663;-61
2021/04/09 10:08:42;;;;;;;7.40;5.05;;;;;;;10.01;38.69;100533.73;1734370;81;21711;-59
2021/04/09 10:11:19;;;;;;;7.95;5.03;;;;;;;10.14;38.18;100533.81;1731989;80;22365;-59
2021/04/09 10:13:48;;;;;;;6.12;5.33;;;;;;;10.17;38.97;100525.43;1737760;81;21516;-61
2021/04/09 10:16:25;;;;;;;6.92;5.83;;;;;;;10.35;38.38;100535.48;1738227;81;21767;-62
2021/04/09 10:18:58;;;;;;;10.48;6.50;;;;;;;10.40;37.26;100542.80;1739028;81;21675;-63
2021/04/09 10:21:31;;;;;;;7.53;6.58;;;;;;;10.40;38.43;100536.22;1738063;81;21669;-61
2021/04/09 10:24:20;;;;;;;7.70;5.95;;;;;;;10.46;39.17;100532.56;1738288;81;21674;-61
2021/04/09 10:26:58;;;;;;;7.05;6.20;;;;;;;10.57;39.16;100539.69;1711916;82;21670;-59
2021/04/09 10:29:35;;;;;;;7.00;5.72;;;;;;;10.55;38.85;100530.10;1707320;82;21663;-64
2021/04/09 10:32:07;;;;;;;6.00;5.35;;;;;;;10.39;38.70;100531.85;1705462;82;21623;-59
2021/04/09 10:34:35;;;;;;;6.08;5.47;;;;;;;10.24;38.49;100531.79;1682982;82;21714;-61
2021/04/09 10:37:06;;;;;;;7.00;6.30;;;;;;;10.13;38.33;100532.53;1708611;82;21670;-61
2021/04/09 10:39:39;;;;;;;6.67;5.97;;;;;;;10.07;38.31;100525.67;1669979;84;21673;-60
2021/04/09 10:42:09;;;;;;;5.97;5.47;;;;;;;10.14;38.31;100527.23;1709667;82;21576;-61
2021/04/09 10:44:36;;;;;;;7.40;5.40;;;;;;;10.28;38.31;100526.00;1710836;82;21595;-60
2021/04/09 10:47:08;;;;;;;7.35;5.85;;;;;;;10.45;37.90;100522.50;1710285;82;21588;-64
2021/04/09 10:49:41;;;;;;;5.78;5.12;;;;;;;10.58;36.31;100519.51;1711095;82;22008;-61
2021/04/09 10:52:15;;;;;;;6.20;4.83;;;;;;;10.58;36.83;100515.10;1700214;82;21610;-62
2021/04/09 10:54:45;;;;;;;5.92;4.47;;;;;;;10.50;36.45;100521.05;1710526;82;21698;-61
2021/04/09 10:57:18;;;;;;;6.50;5.17;;;;;;;10.35;36.86;100515.77;1700925;82;21650;-61
2021/04/09 10:59:50;;;;;;;6.40;4.87;;;;;;;10.29;37.42;100524.65;1668308;84;21199;-62
2021/04/09 11:02:21;;;;;;;5.85;5.22;;;;;;;10.20;36.88;100523.58;1697695;83;22036;-62
2021/04/09 11:04:53;;;;;;;7.00;4.42;;;;;;;10.07;36.74;100519.56;1697489;83;21576;-58
2021/04/09 11:07:44;;;;;;;6.53;4.97;;;;;;;9.92;34.07;100516.89;1702513;82;21635;-61
2021/04/09 11:10:17;;;;;;;6.25;4.45;;;;;;;9.87;36.57;100522.28;1700450;83;21640;-60
2021/04/09 11:12:46;;;;;;;5.60;4.17;;;;;;;9.83;36.19;100525.00;1700087;82;21642;-66
2021/04/09 11:15:25;;;;;;;4.17;3.75;;;;;;;9.86;36.21;100521.85;1703084;83;22063;-58
2021/04/09 11:18:01;;;;;;;3.90;3.50;;;;;;;9.93;35.18;100513.38;1700439;82;21616;-60
2021/04/09 11:20:33;;;;;;;5.90;4.85;;;;;;;10.07;34.49;100520.42;1699763;82;22075;-59
2021/04/09 11:23:10;;;;;;;6.65;4.62;;;;;;;10.30;34.75;100511.05;1701378;83;21186;-61
2021/04/09 11:25:40;;;;;;;;;;;;;;;10.51;34.78;100513.12;1700154;82;21630;-60
2021/04/09 11:28:21;;;;;;;5.47;4.87;;;;;;;10.71;34.25;100511.66;1691749;83;22072;-60
2021/04/09 11:31:03;;;;;;;6.22;5.42;;;;;;;10.77;34.56;100508.84;1699494;82;21611;-58
2021/04/09 11:33:37;;;;;;;5.97;5.37;;;;;;;10.93;34.73;100511.89;1693254;83;21597;-60
2021/04/09 11:36:22;;;;;;;6.85;4.83;;;;;;;10.97;33.71;100508.72;1696956;83;21643;-60
2021/04/09 11:39:06;;;;;;;6.15;5.00;;;;;;;10.82;34.15;100505.63;1699421;83;21655;-60
2021/04/09 11:41:34;;;;;;;5.15;4.60;;;;;;;10.75;34.33;100500.14;1694781;83;21588;-60
2021/04/09 11:44:27;;;;;;;4.92;4.42;;;;;;;10.68;34.57;100503.42;1701879;82;21630;-58
2021/04/09 11:47:20;;;;;;;4.60;4.20;;;;;;;10.65;34.04;100502.19;1702880;83;21140;-58
2021/04/09 11:50:14;;;;;;;4.58;4.12;;;;;;;10.52;33.44;100492.94;1697800;82;22340;-58
2021/04/09 11:53:02;;;;;;;5.60;4.67;;;;;;;10.38;34.35;100497.28;1700227;82;21678;-58